sensor_id;sensor_type;location;lat;lon;timestamp;pressure;altitude;pressure_sealevel;temperature;humidity
73518;BME280;61766;60.318;25.044;2022-10-17T00:01:47;100309.97;;;9.65;56.98
73518;BME280;61766;60.318;25.044;2022-10-17T00:04:12;100306.43;;;9.40;57.16
73518;BME280;61766;60.318;25.044;2022-10-17T00:06:38;100311.17;;;8.83;58.45
73518;BME280;61766;60.318;25.044;2022-10-17T00:09:03;100314.49;;;9.20;57.78
73518;BME280;61766;60.318;25.044;2022-10-17T00:11:27;100311.84;;;9.24;57.37
73518;BME280;61766;60.318;25.044;2022-10-17T00:13:54;100306.80;;;9.09;56.96
73518;BME280;61766;60.318;25.044;2022-10-17T00:16:23;100312.28;;;9.51;56.05
73518;BME280;61766;60.318;25.044;2022-10-17T00:18:43;100309.05;;;9.21;56.34
73518;BME280;61766;60.318;25.044;2022-10-17T00:21:14;100312.42;;;10.02;54.94
73518;BME280;61766;60.318;25.044;2022-10-17T00:23:34;100307.19;;;10.14;53.98
73518;BME280;61766;60.318;25.044;2022-10-17T00:26:01;100311.27;;;9.37;56.10
73518;BME280;61766;60.318;25.044;2022-10-17T00:28:24;100306.58;;;9.76;54.03
73518;BME280;61766;60.318;25.044;2022-10-17T00:30:54;100300.04;;;9.99;54.30
73518;BME280;61766;60.318;25.044;2022-10-17T00:33:14;100308.26;;;9.93;54.58
73518;BME280;61766;60.318;25.044;2022-10-17T00:35:39;100308.89;;;9.65;54.74
73518;BME280;61766;60.318;25.044;2022-10-17T00:38:04;100306.52;;;9.09;55.01
73518;BME280;61766;60.318;25.044;2022-10-17T00:40:29;100300.30;;;9.55;54.53
73518;BME280;61766;60.318;25.044;2022-10-17T00:42:54;100303.44;;;9.91;53.92
73518;BME280;61766;60.318;25.044;2022-10-17T00:45:23;100301.02;;;9.37;54.52
73518;BME280;61766;60.318;25.044;2022-10-17T00:47:47;100308.53;;;8.84;55.70
73518;BME280;61766;60.318;25.044;2022-10-17T00:50:11;100304.99;;;9.34;55.43
73518;BME280;61766;60.318;25.044;2022-10-17T00:52:35;100314.72;;;9.31;55.24
73518;BME280;61766;60.318;25.044;2022-10-17T00:55:03;100297.96;;;9.62;54.17
73518;BME280;61766;60.318;25.044;2022-10-17T00:57:26;100310.51;;;9.44;55.82
73518;BME280;61766;60.318;25.044;2022-10-17T00:59:51;100309.66;;;9.07;55.60
73518;BME280;61766;60.318;25.044;2022-10-17T01:02:17;100306.26;;;9.47;54.87
73518;BME280;61766;60.318;25.044;2022-10-17T01:04:42;100304.51;;;9.63;54.89
73518;BME280;61766;60.318;25.044;2022-10-17T01:07:06;100306.90;;;9.61;54.63
73518;BME280;61766;60.318;25.044;2022-10-17T01:09:31;100311.51;;;9.41;54.64
73518;BME280;61766;60.318;25.044;2022-10-17T01:12:00;100316.26;;;10.21;52.61
73518;BME280;61766;60.318;25.044;2022-10-17T01:14:27;100317.65;;;10.94;50.96
73518;BME280;61766;60.318;25.044;2022-10-17T01:16:52;100313.06;;;10.27;52.33
73518;BME280;61766;60.318;25.044;2022-10-17T01:19:33;100305.49;;;10.02;53.23
73518;BME280;61766;60.318;25.044;2022-10-17T01:21:43;100301.13;;;9.79;53.54
73518;BME280;61766;60.318;25.044;2022-10-17T01:26:36;100295.11;;;9.62;53.38
73518;BME280;61766;60.318;25.044;2022-10-17T01:29:09;100301.07;;;9.76;54.91
73518;BME280;61766;60.318;25.044;2022-10-17T01:31:20;100296.29;;;9.87;54.24
73518;BME280;61766;60.318;25.044;2022-10-17T01:33:52;100304.33;;;9.75;54.03
73518;BME280;61766;60.318;25.044;2022-10-17T01:36:14;100298.04;;;9.76;53.96
73518;BME280;61766;60.318;25.044;2022-10-17T01:38:39;100293.18;;;9.78;53.24
73518;BME280;61766;60.318;25.044;2022-10-17T01:41:04;100286.99;;;9.63;54.07
73518;BME280;61766;60.318;25.044;2022-10-17T01:43:30;100294.17;;;9.62;53.63
73518;BME280;61766;60.318;25.044;2022-10-17T01:45:53;100289.99;;;9.61;53.09
73518;BME280;61766;60.318;25.044;2022-10-17T01:48:19;100285.91;;;9.77;52.54
73518;BME280;61766;60.318;25.044;2022-10-17T01:50:44;100281.76;;;9.69;52.77
73518;BME280;61766;60.318;25.044;2022-10-17T01:53:10;100275.34;;;10.32;51.87
73518;BME280;61766;60.318;25.044;2022-10-17T01:55:33;100277.31;;;10.10;51.55
73518;BME280;61766;60.318;25.044;2022-10-17T01:58:01;100275.21;;;9.28;52.98
73518;BME280;61766;60.318;25.044;2022-10-17T02:00:24;100285.22;;;10.15;50.59
73518;BME280;61766;60.318;25.044;2022-10-17T02:02:51;100289.60;;;10.27;50.79
73518;BME280;61766;60.318;25.044;2022-10-17T02:05:16;100292.43;;;10.70;50.05
73518;BME280;61766;60.318;25.044;2022-10-17T02:07:40;100285.20;;;9.88;51.52
73518;BME280;61766;60.318;25.044;2022-10-17T02:10:11;100290.07;;;9.94;50.66
73518;BME280;61766;60.318;25.044;2022-10-17T02:12:39;100287.25;;;9.75;51.76
73518;BME280;61766;60.318;25.044;2022-10-17T02:15:09;100282.73;;;9.57;52.74
73518;BME280;61766;60.318;25.044;2022-10-17T02:17:31;100280.09;;;10.05;51.99
73518;BME280;61766;60.318;25.044;2022-10-17T02:19:54;100276.13;;;10.31;51.61
73518;BME280;61766;60.318;25.044;2022-10-17T02:22:19;100283.05;;;10.01;51.85
73518;BME280;61766;60.318;25.044;2022-10-17T02:24:45;100286.32;;;10.29;51.54
73518;BME280;61766;60.318;25.044;2022-10-17T02:27:07;100279.40;;;9.86;52.45
73518;BME280;61766;60.318;25.044;2022-10-17T02:29:32;100278.37;;;9.96;52.39
73518;BME280;61766;60.318;25.044;2022-10-17T02:31:58;100282.58;;;10.20;52.04
73518;BME280;61766;60.318;25.044;2022-10-17T02:34:24;100279.21;;;9.43;53.05
73518;BME280;61766;60.318;25.044;2022-10-17T02:36:50;100285.25;;;10.15;52.55
73518;BME280;61766;60.318;25.044;2022-10-17T02:39:11;100282.30;;;10.27;51.67
73518;BME280;61766;60.318;25.044;2022-10-17T02:41:38;100280.10;;;9.92;50.76
73518;BME280;61766;60.318;25.044;2022-10-17T02:44:04;100282.13;;;9.07;53.92
73518;BME280;61766;60.318;25.044;2022-10-17T02:46:28;100288.42;;;9.68;52.49
73518;BME280;61766;60.318;25.044;2022-10-17T02:48:55;100283.03;;;9.95;51.04
73518;BME280;61766;60.318;25.044;2022-10-17T02:51:23;100288.03;;;9.52;51.81
73518;BME280;61766;60.318;25.044;2022-10-17T02:53:51;100288.92;;;9.89;50.28
73518;BME280;61766;60.318;25.044;2022-10-17T02:56:15;100299.28;;;10.87;48.25
73518;BME280;61766;60.318;25.044;2022-10-17T02:58:35;100288.37;;;9.69;50.89
73518;BME280;61766;60.318;25.044;2022-10-17T03:01:00;100304.14;;;9.30;51.90
73518;BME280;61766;60.318;25.044;2022-10-17T03:03:26;100303.63;;;8.75;54.21
73518;BME280;61766;60.318;25.044;2022-10-17T03:05:50;100300.43;;;9.03;54.02
73518;BME280;61766;60.318;25.044;2022-10-17T03:08:14;100295.84;;;9.52;54.42
73518;BME280;61766;60.318;25.044;2022-10-17T03:10:39;100307.16;;;9.26;54.31
73518;BME280;61766;60.318;25.044;2022-10-17T03:13:04;100311.70;;;8.77;55.55
73518;BME280;61766;60.318;25.044;2022-10-17T03:15:29;100310.31;;;8.83;55.46
73518;BME280;61766;60.318;25.044;2022-10-17T03:17:54;100302.09;;;8.98;56.26
73518;BME280;61766;60.318;25.044;2022-10-17T03:20:20;100290.95;;;8.50;57.15
73518;BME280;61766;60.318;25.044;2022-10-17T03:22:44;100300.13;;;8.56;57.88
73518;BME280;61766;60.318;25.044;2022-10-17T03:25:10;100312.61;;;8.99;57.20
73518;BME280;61766;60.318;25.044;2022-10-17T03:27:35;100307.44;;;8.17;59.37
73518;BME280;61766;60.318;25.044;2022-10-17T03:30:00;100303.94;;;8.79;57.91
73518;BME280;61766;60.318;25.044;2022-10-17T03:32:25;100305.30;;;8.24;59.27
73518;BME280;61766;60.318;25.044;2022-10-17T03:34:50;100312.18;;;8.76;58.19
73518;BME280;61766;60.318;25.044;2022-10-17T03:37:15;100317.36;;;9.04;57.81
73518;BME280;61766;60.318;25.044;2022-10-17T03:39:40;100315.75;;;9.00;57.52
73518;BME280;61766;60.318;25.044;2022-10-17T03:42:05;100324.85;;;8.71;58.20
73518;BME280;61766;60.318;25.044;2022-10-17T03:44:30;100328.93;;;8.48;59.10
73518;BME280;61766;60.318;25.044;2022-10-17T03:46:55;100323.83;;;9.06;58.65
73518;BME280;61766;60.318;25.044;2022-10-17T03:49:20;100322.36;;;8.47;59.45
73518;BME280;61766;60.318;25.044;2022-10-17T03:51:45;100332.99;;;8.45;59.71
73518;BME280;61766;60.318;25.044;2022-10-17T03:54:10;100329.48;;;8.45;58.50
73518;BME280;61766;60.318;25.044;2022-10-17T03:56:35;100338.22;;;8.84;59.31
73518;BME280;61766;60.318;25.044;2022-10-17T03:59:00;100340.09;;;9.34;58.19
73518;BME280;61766;60.318;25.044;2022-10-17T04:01:25;100343.22;;;8.53;60.05
73518;BME280;61766;60.318;25.044;2022-10-17T04:03:51;100343.97;;;8.77;59.00
73518;BME280;61766;60.318;25.044;2022-10-17T04:06:15;100350.35;;;9.02;59.24
73518;BME280;61766;60.318;25.044;2022-10-17T04:08:40;100352.32;;;8.61;60.02
73518;BME280;61766;60.318;25.044;2022-10-17T04:11:06;100357.94;;;8.84;59.98
73518;BME280;61766;60.318;25.044;2022-10-17T04:13:31;100354.93;;;8.59;60.02
73518;BME280;61766;60.318;25.044;2022-10-17T04:15:56;100360.25;;;8.28;61.71
73518;BME280;61766;60.318;25.044;2022-10-17T04:18:20;100361.99;;;8.56;59.61
73518;BME280;61766;60.318;25.044;2022-10-17T04:20:45;100366.13;;;8.47;59.96
73518;BME280;61766;60.318;25.044;2022-10-17T04:23:10;100368.55;;;8.81;59.66
73518;BME280;61766;60.318;25.044;2022-10-17T04:25:36;100372.54;;;8.76;58.80
73518;BME280;61766;60.318;25.044;2022-10-17T04:28:01;100380.28;;;9.09;58.37
73518;BME280;61766;60.318;25.044;2022-10-17T04:30:26;100384.25;;;9.15;58.11
73518;BME280;61766;60.318;25.044;2022-10-17T04:32:51;100387.31;;;9.10;58.13
73518;BME280;61766;60.318;25.044;2022-10-17T04:35:16;100394.08;;;9.03;58.97
73518;BME280;61766;60.318;25.044;2022-10-17T04:37:41;100401.91;;;9.08;58.45
73518;BME280;61766;60.318;25.044;2022-10-17T04:40:07;100412.47;;;9.61;57.53
73518;BME280;61766;60.318;25.044;2022-10-17T04:42:31;100414.59;;;9.95;56.33
73518;BME280;61766;60.318;25.044;2022-10-17T04:44:56;100420.91;;;10.23;55.15
73518;BME280;61766;60.318;25.044;2022-10-17T04:47:21;100420.59;;;10.11;55.19
73518;BME280;61766;60.318;25.044;2022-10-17T04:49:46;100434.98;;;10.41;54.97
73518;BME280;61766;60.318;25.044;2022-10-17T04:52:11;100450.58;;;9.90;55.58
73518;BME280;61766;60.318;25.044;2022-10-17T04:54:36;100458.09;;;9.68;56.47
73518;BME280;61766;60.318;25.044;2022-10-17T04:57:01;100465.01;;;9.76;56.30
73518;BME280;61766;60.318;25.044;2022-10-17T04:59:27;100469.04;;;9.52;57.94
73518;BME280;61766;60.318;25.044;2022-10-17T05:01:51;100474.73;;;9.47;57.00
73518;BME280;61766;60.318;25.044;2022-10-17T05:04:17;100479.07;;;9.26;58.08
73518;BME280;61766;60.318;25.044;2022-10-17T05:06:42;100485.95;;;8.90;59.90
73518;BME280;61766;60.318;25.044;2022-10-17T05:09:07;100492.32;;;8.45;61.24
73518;BME280;61766;60.318;25.044;2022-10-17T05:11:32;100494.25;;;8.29;62.83
73518;BME280;61766;60.318;25.044;2022-10-17T05:13:59;100498.75;;;8.58;61.80
73518;BME280;61766;60.318;25.044;2022-10-17T05:16:23;100508.25;;;8.99;60.47
73518;BME280;61766;60.318;25.044;2022-10-17T05:18:48;100519.73;;;9.46;59.61
73518;BME280;61766;60.318;25.044;2022-10-17T05:21:12;100521.63;;;8.91;58.77
73518;BME280;61766;60.318;25.044;2022-10-17T05:23:37;100535.91;;;9.11;58.41
73518;BME280;61766;60.318;25.044;2022-10-17T05:26:02;100548.59;;;9.58;57.03
73518;BME280;61766;60.318;25.044;2022-10-17T05:28:27;100559.69;;;9.82;56.30
73518;BME280;61766;60.318;25.044;2022-10-17T05:30:52;100565.10;;;10.07;55.47
73518;BME280;61766;60.318;25.044;2022-10-17T05:33:17;100578.84;;;10.13;55.24
73518;BME280;61766;60.318;25.044;2022-10-17T05:35:42;100586.70;;;10.47;54.47
73518;BME280;61766;60.318;25.044;2022-10-17T05:38:07;100591.50;;;10.53;53.78
73518;BME280;61766;60.318;25.044;2022-10-17T05:40:32;100599.86;;;10.34;53.55
73518;BME280;61766;60.318;25.044;2022-10-17T05:42:57;100610.46;;;10.80;53.18
73518;BME280;61766;60.318;25.044;2022-10-17T05:45:22;100613.66;;;10.60;53.00
73518;BME280;61766;60.318;25.044;2022-10-17T05:47:47;100627.86;;;10.34;53.50
73518;BME280;61766;60.318;25.044;2022-10-17T05:50:12;100630.63;;;10.88;52.29
73518;BME280;61766;60.318;25.044;2022-10-17T05:52:37;100636.77;;;10.77;52.68
73518;BME280;61766;60.318;25.044;2022-10-17T05:55:03;100652.07;;;10.38;52.97
73518;BME280;61766;60.318;25.044;2022-10-17T05:57:27;100658.58;;;10.56;52.83
73518;BME280;61766;60.318;25.044;2022-10-17T05:59:52;100663.76;;;10.53;53.22
73518;BME280;61766;60.318;25.044;2022-10-17T06:02:17;100666.48;;;11.02;52.01
73518;BME280;61766;60.318;25.044;2022-10-17T06:04:42;100677.19;;;11.43;51.12
73518;BME280;61766;60.318;25.044;2022-10-17T06:07:07;100685.12;;;11.35;50.83
73518;BME280;61766;60.318;25.044;2022-10-17T06:09:33;100689.75;;;11.42;50.36
73518;BME280;61766;60.318;25.044;2022-10-17T06:11:57;100699.52;;;10.91;51.09
73518;BME280;61766;60.318;25.044;2022-10-17T06:14:22;100714.38;;;10.61;52.02
73518;BME280;61766;60.318;25.044;2022-10-17T06:16:47;100722.89;;;10.59;52.29
73518;BME280;61766;60.318;25.044;2022-10-17T06:19:12;100733.24;;;10.76;52.16
73518;BME280;61766;60.318;25.044;2022-10-17T06:21:38;100735.83;;;10.92;51.41
73518;BME280;61766;60.318;25.044;2022-10-17T06:24:03;100744.23;;;11.20;50.29
73518;BME280;61766;60.318;25.044;2022-10-17T06:26:28;100750.85;;;10.95;50.61
73518;BME280;61766;60.318;25.044;2022-10-17T06:28:53;100757.97;;;11.14;50.75
73518;BME280;61766;60.318;25.044;2022-10-17T06:31:18;100771.13;;;11.28;50.72
73518;BME280;61766;60.318;25.044;2022-10-17T06:33:43;100773.14;;;11.45;50.15
73518;BME280;61766;60.318;25.044;2022-10-17T06:36:11;100784.63;;;10.73;52.01
73518;BME280;61766;60.318;25.044;2022-10-17T06:38:33;100791.96;;;10.50;52.88
73518;BME280;61766;60.318;25.044;2022-10-17T06:41:03;100802.40;;;10.55;54.38
73518;BME280;61766;60.318;25.044;2022-10-17T06:43:23;100807.97;;;10.20;54.47
73518;BME280;61766;60.318;25.044;2022-10-17T06:45:48;100818.16;;;9.89;55.69
73518;BME280;61766;60.318;25.044;2022-10-17T06:48:13;100825.01;;;9.42;57.20
73518;BME280;61766;60.318;25.044;2022-10-17T06:50:38;100826.57;;;9.46;56.61
73518;BME280;61766;60.318;25.044;2022-10-17T06:53:03;100830.31;;;10.10;56.26
73518;BME280;61766;60.318;25.044;2022-10-17T06:55:29;100831.63;;;10.33;54.21
73518;BME280;61766;60.318;25.044;2022-10-17T06:57:53;100842.63;;;10.38;54.69
73518;BME280;61766;60.318;25.044;2022-10-17T07:00:18;100850.46;;;10.41;54.55
73518;BME280;61766;60.318;25.044;2022-10-17T07:02:43;100858.01;;;10.63;53.87
73518;BME280;61766;60.318;25.044;2022-10-17T07:05:08;100861.65;;;10.37;53.67
73518;BME280;61766;60.318;25.044;2022-10-17T07:07:33;100869.53;;;10.95;53.27
73518;BME280;61766;60.318;25.044;2022-10-17T07:09:58;100873.59;;;11.60;51.91
73518;BME280;61766;60.318;25.044;2022-10-17T07:12:23;100883.45;;;10.87;52.51
73518;BME280;61766;60.318;25.044;2022-10-17T07:14:48;100891.37;;;11.43;52.01
73518;BME280;61766;60.318;25.044;2022-10-17T07:17:13;100903.06;;;11.52;51.45
73518;BME280;61766;60.318;25.044;2022-10-17T07:19:38;100901.48;;;11.46;51.04
73518;BME280;61766;60.318;25.044;2022-10-17T07:22:04;100907.69;;;11.23;51.56
73518;BME280;61766;60.318;25.044;2022-10-17T07:24:29;100911.49;;;10.65;52.83
73518;BME280;61766;60.318;25.044;2022-10-17T07:26:55;100918.70;;;11.14;53.37
73518;BME280;61766;60.318;25.044;2022-10-17T07:29:21;100926.61;;;11.27;52.74
73518;BME280;61766;60.318;25.044;2022-10-17T07:31:47;100936.58;;;11.35;52.51
73518;BME280;61766;60.318;25.044;2022-10-17T07:34:13;100941.50;;;11.07;53.08
73518;BME280;61766;60.318;25.044;2022-10-17T07:36:38;100950.05;;;11.04;53.63
73518;BME280;61766;60.318;25.044;2022-10-17T07:39:04;100955.18;;;10.62;54.19
73518;BME280;61766;60.318;25.044;2022-10-17T07:41:29;100955.07;;;10.83;53.47
73518;BME280;61766;60.318;25.044;2022-10-17T07:43:55;100959.28;;;10.76;53.68
73518;BME280;61766;60.318;25.044;2022-10-17T07:46:21;100966.55;;;11.36;53.51
73518;BME280;61766;60.318;25.044;2022-10-17T07:48:46;100973.51;;;10.41;55.90
73518;BME280;61766;60.318;25.044;2022-10-17T07:51:12;100978.50;;;10.69;55.01
73518;BME280;61766;60.318;25.044;2022-10-17T07:53:38;100977.21;;;10.91;53.66
73518;BME280;61766;60.318;25.044;2022-10-17T07:56:05;100981.94;;;11.09;52.63
73518;BME280;61766;60.318;25.044;2022-10-17T07:58:29;100986.97;;;11.47;51.26
73518;BME280;61766;60.318;25.044;2022-10-17T08:00:59;100990.02;;;12.08;51.02
73518;BME280;61766;60.318;25.044;2022-10-17T08:03:21;100985.12;;;11.32;51.79
73518;BME280;61766;60.318;25.044;2022-10-17T08:05:47;100988.59;;;11.69;51.54
73518;BME280;61766;60.318;25.044;2022-10-17T08:08:13;100993.80;;;11.61;51.50
73518;BME280;61766;60.318;25.044;2022-10-17T08:10:39;100998.30;;;11.73;51.55
73518;BME280;61766;60.318;25.044;2022-10-17T08:13:04;101002.93;;;12.16;50.95
73518;BME280;61766;60.318;25.044;2022-10-17T08:15:31;101007.06;;;12.39;50.62
73518;BME280;61766;60.318;25.044;2022-10-17T08:17:57;101016.85;;;12.03;50.95
73518;BME280;61766;60.318;25.044;2022-10-17T08:20:22;101017.82;;;11.88;51.54
73518;BME280;61766;60.318;25.044;2022-10-17T08:22:51;101025.76;;;12.30;50.68
73518;BME280;61766;60.318;25.044;2022-10-17T08:25:14;101029.36;;;12.16;50.86
73518;BME280;61766;60.318;25.044;2022-10-17T08:27:40;101033.13;;;11.97;50.49
73518;BME280;61766;60.318;25.044;2022-10-17T08:30:07;101043.98;;;12.04;51.38
73518;BME280;61766;60.318;25.044;2022-10-17T08:32:31;101049.50;;;11.97;51.48
73518;BME280;61766;60.318;25.044;2022-10-17T08:34:57;101059.05;;;12.03;50.80
73518;BME280;61766;60.318;25.044;2022-10-17T08:37:23;101062.06;;;11.77;52.21
73518;BME280;61766;60.318;25.044;2022-10-17T08:39:49;101056.84;;;12.16;51.09
73518;BME280;61766;60.318;25.044;2022-10-17T08:42:33;101059.64;;;12.35;50.82
73518;BME280;61766;60.318;25.044;2022-10-17T08:44:48;101064.66;;;11.67;52.17
73518;BME280;61766;60.318;25.044;2022-10-17T08:47:10;101073.64;;;11.37;52.81
73518;BME280;61766;60.318;25.044;2022-10-17T08:49:38;101086.27;;;11.09;53.01
73518;BME280;61766;60.318;25.044;2022-10-17T08:52:03;101091.75;;;10.40;54.11
73518;BME280;61766;60.318;25.044;2022-10-17T08:54:30;101093.98;;;11.12;53.09
73518;BME280;61766;60.318;25.044;2022-10-17T08:56:52;101089.79;;;11.53;51.34
73518;BME280;61766;60.318;25.044;2022-10-17T08:59:17;101091.34;;;11.89;50.25
73518;BME280;61766;60.318;25.044;2022-10-17T09:01:47;101094.68;;;11.86;49.66
73518;BME280;61766;60.318;25.044;2022-10-17T09:06:35;101118.34;;;11.70;49.92
73518;BME280;61766;60.318;25.044;2022-10-17T09:09:13;101123.88;;;11.81;48.92
73518;BME280;61766;60.318;25.044;2022-10-17T09:11:36;101131.51;;;12.29;47.98
73518;BME280;61766;60.318;25.044;2022-10-17T09:13:59;101144.73;;;12.04;48.24
73518;BME280;61766;60.318;25.044;2022-10-17T09:18:46;101158.75;;;12.07;50.04
73518;BME280;61766;60.318;25.044;2022-10-17T09:21:18;101153.98;;;11.70;50.44
73518;BME280;61766;60.318;25.044;2022-10-17T09:23:38;101156.87;;;12.54;48.61
73518;BME280;61766;60.318;25.044;2022-10-17T09:26:00;101163.48;;;12.43;48.46
73518;BME280;61766;60.318;25.044;2022-10-17T09:28:29;101172.76;;;13.06;47.25
73518;BME280;61766;60.318;25.044;2022-10-17T09:30:55;101180.49;;;12.11;48.89
73518;BME280;61766;60.318;25.044;2022-10-17T09:33:19;101186.37;;;12.53;48.82
73518;BME280;61766;60.318;25.044;2022-10-17T09:35:43;101191.40;;;11.40;49.97
73518;BME280;61766;60.318;25.044;2022-10-17T09:38:16;101191.41;;;12.21;48.16
73518;BME280;61766;60.318;25.044;2022-10-17T09:40:35;101191.06;;;12.46;48.31
73518;BME280;61766;60.318;25.044;2022-10-17T09:43:02;101201.71;;;11.56;49.32
73518;BME280;61766;60.318;25.044;2022-10-17T09:45:27;101211.39;;;11.71;50.45
73518;BME280;61766;60.318;25.044;2022-10-17T09:47:58;101217.59;;;11.51;49.33
73518;BME280;61766;60.318;25.044;2022-10-17T09:50:21;101220.47;;;11.66;49.49
73518;BME280;61766;60.318;25.044;2022-10-17T09:52:44;101224.38;;;11.97;48.15
73518;BME280;61766;60.318;25.044;2022-10-17T09:55:16;101229.71;;;11.19;49.10
73518;BME280;61766;60.318;25.044;2022-10-17T09:57:50;101233.95;;;11.74;48.58
73518;BME280;61766;60.318;25.044;2022-10-17T10:00:04;101245.36;;;11.10;49.90
73518;BME280;61766;60.318;25.044;2022-10-17T10:02:29;101243.40;;;11.27;49.77
73518;BME280;61766;60.318;25.044;2022-10-17T10:04:57;101254.99;;;11.18;49.65
73518;BME280;61766;60.318;25.044;2022-10-17T10:07:19;101260.27;;;11.54;47.64
73518;BME280;61766;60.318;25.044;2022-10-17T10:09:46;101257.98;;;12.01;46.13
73518;BME280;61766;60.318;25.044;2022-10-17T10:12:17;101261.94;;;12.52;45.41
73518;BME280;61766;60.318;25.044;2022-10-17T10:14:37;101261.14;;;12.46;45.13
73518;BME280;61766;60.318;25.044;2022-10-17T10:17:05;101263.52;;;12.68;44.48
73518;BME280;61766;60.318;25.044;2022-10-17T10:19:31;101265.52;;;12.06;47.09
73518;BME280;61766;60.318;25.044;2022-10-17T10:21:55;101265.70;;;12.02;46.36
73518;BME280;61766;60.318;25.044;2022-10-17T10:24:20;101260.34;;;12.95;45.44
73518;BME280;61766;60.318;25.044;2022-10-17T10:26:47;101268.58;;;13.04;45.05
73518;BME280;61766;60.318;25.044;2022-10-17T10:29:21;101275.32;;;12.54;46.18
73518;BME280;61766;60.318;25.044;2022-10-17T10:31:38;101262.73;;;11.56;48.90
73518;BME280;61766;60.318;25.044;2022-10-17T10:34:15;101260.52;;;12.71;47.45
73518;BME280;61766;60.318;25.044;2022-10-17T10:36:44;101267.24;;;12.45;46.76
73518;BME280;61766;60.318;25.044;2022-10-17T10:38:56;101268.62;;;12.50;46.82
73518;BME280;61766;60.318;25.044;2022-10-17T10:41:20;101273.79;;;12.28;47.42
73518;BME280;61766;60.318;25.044;2022-10-17T10:43:48;101278.12;;;12.46;47.73
73518;BME280;61766;60.318;25.044;2022-10-17T10:46:18;101281.88;;;12.34;48.53
73518;BME280;61766;60.318;25.044;2022-10-17T10:51:10;101283.74;;;11.85;49.90
73518;BME280;61766;60.318;25.044;2022-10-17T10:53:37;101292.16;;;11.84;50.24
73518;BME280;61766;60.318;25.044;2022-10-17T10:55:59;101290.52;;;11.60;50.37
73518;BME280;61766;60.318;25.044;2022-10-17T10:58:29;101292.64;;;12.13;49.97
73518;BME280;61766;60.318;25.044;2022-10-17T11:00:48;101301.16;;;12.41;48.67
73518;BME280;61766;60.318;25.044;2022-10-17T11:03:17;101314.55;;;12.34;48.43
73518;BME280;61766;60.318;25.044;2022-10-17T11:05:43;101331.73;;;12.11;48.48
73518;BME280;61766;60.318;25.044;2022-10-17T11:08:12;101331.43;;;12.43;47.30
73518;BME280;61766;60.318;25.044;2022-10-17T11:10:36;101332.32;;;13.14;46.78
73518;BME280;61766;60.318;25.044;2022-10-17T11:13:10;101332.93;;;12.38;47.80
73518;BME280;61766;60.318;25.044;2022-10-17T11:15:27;101338.50;;;12.31;47.77
73518;BME280;61766;60.318;25.044;2022-10-17T11:17:54;101340.07;;;12.10;47.34
73518;BME280;61766;60.318;25.044;2022-10-17T11:20:20;101346.00;;;11.52;49.12
73518;BME280;61766;60.318;25.044;2022-10-17T11:22:43;101345.02;;;11.41;49.05
73518;BME280;61766;60.318;25.044;2022-10-17T11:25:15;101353.01;;;11.73;48.21
73518;BME280;61766;60.318;25.044;2022-10-17T11:27:33;101353.68;;;12.42;47.20
73518;BME280;61766;60.318;25.044;2022-10-17T11:29:57;101354.11;;;12.30;46.46
73518;BME280;61766;60.318;25.044;2022-10-17T11:32:25;101357.85;;;12.11;46.80
73518;BME280;61766;60.318;25.044;2022-10-17T11:34:52;101350.86;;;11.79;47.51
73518;BME280;61766;60.318;25.044;2022-10-17T11:37:19;101346.61;;;11.63;47.51
73518;BME280;61766;60.318;25.044;2022-10-17T11:39:43;101361.41;;;11.61;48.65
73518;BME280;61766;60.318;25.044;2022-10-17T11:42:11;101356.96;;;11.87;48.26
73518;BME280;61766;60.318;25.044;2022-10-17T11:44:34;101356.88;;;11.19;48.79
73518;BME280;61766;60.318;25.044;2022-10-17T11:47:05;101362.78;;;11.44;48.49
73518;BME280;61766;60.318;25.044;2022-10-17T11:49:27;101363.83;;;11.18;47.81
73518;BME280;61766;60.318;25.044;2022-10-17T11:51:53;101371.06;;;11.81;47.38
73518;BME280;61766;60.318;25.044;2022-10-17T11:54:21;101381.76;;;11.39;48.32
73518;BME280;61766;60.318;25.044;2022-10-17T11:56:47;101387.60;;;11.95;47.48
73518;BME280;61766;60.318;25.044;2022-10-17T12:01:37;101394.50;;;12.04;46.27
73518;BME280;61766;60.318;25.044;2022-10-17T12:04:12;101397.18;;;11.77;46.73
73518;BME280;61766;60.318;25.044;2022-10-17T12:06:38;101389.87;;;12.25;47.24
73518;BME280;61766;60.318;25.044;2022-10-17T12:08:56;101390.78;;;12.53;45.80
73518;BME280;61766;60.318;25.044;2022-10-17T12:11:27;101395.96;;;12.81;45.10
73518;BME280;61766;60.318;25.044;2022-10-17T12:13:48;101408.81;;;12.53;45.35
73518;BME280;61766;60.318;25.044;2022-10-17T12:18:34;101419.26;;;12.57;45.65
73518;BME280;61766;60.318;25.044;2022-10-17T12:21:00;101423.41;;;12.68;44.97
73518;BME280;61766;60.318;25.044;2022-10-17T12:23:26;101418.76;;;12.39;45.94
73518;BME280;61766;60.318;25.044;2022-10-17T12:25:53;101413.85;;;12.09;45.10
73518;BME280;61766;60.318;25.044;2022-10-17T12:28:24;101413.13;;;11.95;45.79
73518;BME280;61766;60.318;25.044;2022-10-17T12:30:52;101411.14;;;12.38;45.14
73518;BME280;61766;60.318;25.044;2022-10-17T12:33:16;101411.33;;;12.06;46.30
73518;BME280;61766;60.318;25.044;2022-10-17T12:35:37;101414.65;;;12.71;45.52
73518;BME280;61766;60.318;25.044;2022-10-17T12:42:52;101421.35;;;11.24;48.51
73518;BME280;61766;60.318;25.044;2022-10-17T12:47:44;101420.61;;;12.63;45.06
73518;BME280;61766;60.318;25.044;2022-10-17T12:52:52;101424.50;;;12.20;45.33
73518;BME280;61766;60.318;25.044;2022-10-17T12:55:11;101426.02;;;12.30;45.46
73518;BME280;61766;60.318;25.044;2022-10-17T12:57:32;101423.27;;;13.41;43.26